LIMCLSZA

Guest
Details From LIMC - Milano Malpensa
To LSZA - Lugano
Flight Number -
Tags Routegen Generated
Created
Modified
Stats Distance 23 nm / 43 km
Max Altitude 100 ft / 30 m
Waypoints 5
Social Downloads 27
Likes 0
Share

Download

Looking for another format? Having issues loading an existing format? Contact us
Advertisement - Login to hide

Notes

Departing runway 34 LIMC. Arriving runway 1 LSZA.

Route

LIMC +45.72_+008.70 +45.82_+008.79 +45.93_+008.87 LSZA

ID Type Via Altitude (ft/m) Position (lat/lon) Dist (leg/tot) Name
O LIMC APT - 0 / 0 45.64546 / 8.71872 - / 0 nm
+45.72_+008.70 LATLON - 100 / 30 45.71664 / 8.70006 4 / 4 nm
+45.82_+008.79 LATLON - 100 / 30 45.82333 / 8.78715 7 / 11 nm
+45.93_+008.87 LATLON - 100 / 30 45.93001 / 8.87425 7 / 19 nm
O LSZA APT - 0 / 0 45.99853 / 8.90776 4 / 23 nm Lugano

Altitude Profile

Advertisement - Login to hide

LIMC

Details ICAO LIMC (MXP)
Name Milano-Malpensa
Region Italy
Timezone Europe/Rome (UTC+2.0)
Stats Elevation 767 ft / 234 m (AMSL)
Location 45.630600° 8.728120°
Runways 2
Magnetic Variation 2.702° E

METAR

LIMC 271650Z 12005KT 090V150 9999 SCT050 16/05 Q1005 NOSIG

Decode

TAF

TAF LIMC 271100Z 2712/2818 11010KT 9999 FEW040 BECMG 2717/2719 VRB05KT

Decode

Departure Runways

ID Width Length Bearing (true/mag) Surface Threshold Overrun Markings Lighting
17L 197 ft / 60 m 12,873 ft / 3,924 m 169.06° / 166.36° ASPHALT 3,081 ft / 939 m 207 ft / 63 m PREC-APP CENTERLINE EDGE THRESHOLD ALSF-II TDZ REIL-OMNI
17R 197 ft / 60 m 12,873 ft / 3,924 m 169.06° / 166.36° ASPHALT 0 ft / 0 m 387 ft / 118 m PREC-APP CENTERLINE EDGE THRESHOLD TDZ REIL-OMNI
35L 197 ft / 60 m 12,873 ft / 3,924 m 349.07° / 346.37° ASPHALT 1,319 ft / 402 m 197 ft / 60 m PREC-APP CENTERLINE EDGE THRESHOLD ALSF-II TDZ REIL-OMNI
35R 197 ft / 60 m 12,873 ft / 3,924 m 349.07° / 346.37° ASPHALT 0 ft / 0 m 180 ft / 55 m PREC-APP CENTERLINE EDGE THRESHOLD ALSF-II TDZ REIL-OMNI

LSZA

Details ICAO LSZA (LUG)
Name Lugano
Region Switzerland
Timezone Europe/Zurich (UTC+2.0)
Stats Elevation 915 ft / 279 m (AMSL)
Location 46.004300° 8.910580°
Runways 1
Magnetic Variation 2.751° E

METAR

LSZA 271720Z AUTO 01003KT 350V050 9999 NCD 10/07 Q1006

Decode

TAF

Not found

Destination Runways

ID Width Length Bearing (true/mag) Surface Threshold Overrun Markings Lighting
01 98 ft / 30 m 4,415 ft / 1,346 m 18.79° / 16.03° CONCRETE 358 ft / 109 m 16 ft / 5 m PREC-APP CENTERLINE EDGE THRESHOLD SALS REIL-UNI
19 98 ft / 30 m 4,415 ft / 1,346 m 198.79° / 196.04° CONCRETE 673 ft / 205 m 0 ft / 0 m APP CENTERLINE EDGE THRESHOLD SALS REIL-UNI

Approach Navaids

Runway Type Ident Frequency Range Bearing (true/mag) Slope Elevation
01 DME ILU 111.50 MHz 18 nm / 33 km - - 928 ft / 283 m (AMSL)
01 LOC-ILS ILU 111.50 MHz 18 nm / 33 km 18.79° / 16.04 ° - 928 ft / 283 m (AMSL)
01 GS ILU 111.50 MHz 10 nm / 19 km 20.98° / 18.23 ° 6.00° 928 ft / 283 m (AMSL)

Popular Alternatives